Elk Horn, Idaho
Current Conditions -  °F | °C
As of 10:47 PM on Thursday 27 Nov 2014 (Local Time) from KSUN Reporting Station
Clear Clear  
Wind Chill:   Ceiling: Unl
Heat Index:   Visibility: 10mi
Dew Point:   Wind: 7mph
Humidity: 87%   Direction: 300°WNW
Pressure: 30.08"   Gusts: NA
Location:  43.6966°N, 114.35°W
Report Text: KSUN 280547Z 30006KT 10SM SKC 03/01 A3008
Loading
Personal Weather Stations






























Interactive Weather Map New forecast layout! Learn more

10-Day Weather Forecast

Advertisements
Track Severe Weather on mobile